Time;durP1;ratioP1;P1;durP2;ratioP2;P2;SDS_P1;SDS_P2;PMS_P1;PMS_P2;Temp;Humidity;BMP_temperature;BMP_pressure;BME280_temperature;BME280_humidity;BME280_pressure;Samples;Min_cycle;Max_cycle;Signal;HPM_P1;HPM_P2
2023/01/20 00:00:54;;;;;;;;;;;;;;;;;;4996239;28;20076;-73
2023/01/20 00:03:21;;;;;;;;;;;;;;;;;;4995929;28;19945;-74
2023/01/20 00:05:47;;;;;;;;;;;;;;;;;;4994437;28;19960;-73
2023/01/20 00:08:13;;;;;;;;;;;;;;;;;;4995889;28;19948;-73
2023/01/20 00:10:39;;;;;;;;;;;;;;;;;;4996341;28;20411;-73
2023/01/20 00:13:05;;;;;;;;;;;;;;;;;;4995955;28;19969;-73
2023/01/20 00:15:31;;;;;;;;;;;;;;;;;;4995724;28;20283;-73
2023/01/20 00:17:57;;;;;;;;;;;;;;;;;;4995944;28;19956;-74
2023/01/20 00:20:22;;;;;;;;;;;;;;;;;;4995585;28;20467;-72
2023/01/20 00:22:48;;;;;;;;;;;;;;;;;;4995556;28;20045;-73
2023/01/20 00:25:14;;;;;;;;;;;;;;;;;;4995803;28;19948;-73
2023/01/20 00:27:56;;;;;;;;;;;;;;;;;;4983137;28;20951;-73
2023/01/20 00:30:22;;;;;;;;;;;;;;;;;;4995430;28;19950;-72
2023/01/20 00:32:48;;;;;;;;;;;;;;;;;;4995842;28;20386;-72
2023/01/20 00:35:14;;;;;;;;;;;;;;;;;;4995591;28;19957;-73
2023/01/20 00:37:39;;;;;;;;;;;;;;;;;;4994010;28;20320;-73
2023/01/20 00:40:05;;;;;;;;;;;;;;;;;;4995089;28;19945;-71
2023/01/20 00:42:31;;;;;;;;;;;;;;;;;;4993778;28;19944;-73
2023/01/20 00:44:57;;;;;;;;;;;;;;;;;;4995192;28;19995;-74
2023/01/20 00:47:23;;;;;;;;;;;;;;;;;;4995289;28;19967;-73
2023/01/20 00:49:49;;;;;;;;;;;;;;;;;;4994870;28;19971;-73
2023/01/20 00:52:17;;;;;;;;;;;;;;;;;;4995015;28;19966;-73
2023/01/20 00:54:43;;;;;;;;;;;;;;;;;;4995192;28;19972;-74
2023/01/20 00:57:09;;;;;;;;;;;;;;;;;;4994924;28;19972;-75
2023/01/20 00:59:35;;;;;;;;;;;;;;;;;;4995437;28;19982;-74
2023/01/20 01:02:02;;;;;;;;;;;;;;;;;;4994892;28;19984;-74
2023/01/20 01:04:27;;;;;;;;;;;;;;;;;;4993373;28;19954;-72
2023/01/20 01:06:53;;;;;;;;;;;;;;;;;;4994785;28;19958;-74
2023/01/20 01:09:20;;;;;;;;;;;;;;;;;;4995349;28;20408;-73
2023/01/20 01:11:46;;;;;;;;;;;;;;;;;;4995024;28;19943;-72
2023/01/20 01:14:12;;;;;;;;;;;;;;;;;;4994607;28;20062;-73
2023/01/20 01:16:38;;;;;;;;;;;;;;;;;;4994975;28;20335;-74
2023/01/20 01:19:04;;;;;;;;;;;;;;;;;;4994955;28;19952;-73
2023/01/20 01:21:30;;;;;;;;;;;;;;;;;;4993351;28;19952;-75
2023/01/20 01:23:55;;;;;;;;;;;;;;;;;;4994526;28;19943;-73
2023/01/20 01:26:21;;;;;;;;;;;;;;;;;;4995068;28;19947;-73
2023/01/20 01:28:47;;;;;;;;;;;;;;;;;;4994809;28;19948;-72
2023/01/20 01:31:13;;;;;;;;;;;;;;;;;;4994466;28;19952;-73
2023/01/20 01:33:39;;;;;;;;;;;;;;;;;;4994345;28;20016;-74
2023/01/20 01:36:07;;;;;;;;;;;;;;;;;;4994414;28;19949;-73
2023/01/20 01:38:33;;;;;;;;;;;;;;;;;;4994616;28;19957;-74
2023/01/20 01:40:59;;;;;;;;;;;;;;;;;;4994342;28;20303;-73
2023/01/20 01:43:24;;;;;;;;;;;;;;;;;;4994649;28;19949;-73
2023/01/20 01:45:50;;;;;;;;;;;;;;;;;;4994344;28;19948;-73
2023/01/20 01:48:16;;;;;;;;;;;;;;;;;;4994306;28;19959;-74
2023/01/20 01:50:43;;;;;;;;;;;;;;;;;;4992615;28;20074;-74
2023/01/20 01:53:09;;;;;;;;;;;;;;;;;;4995779;28;20444;-74
2023/01/20 01:55:35;;;;;;;;;;;;;;;;;;4997017;28;19942;-73
2023/01/20 01:58:00;;;;;;;;;;;;;;;;;;4998546;28;19989;-73
2023/01/20 02:00:26;;;;;;;;;;;;;;;;;;4998480;28;19941;-72
2023/01/20 02:02:52;;;;;;;;;;;;;;;;;;4998185;28;19945;-73
2023/01/20 02:05:18;;;;;;;;;;;;;;;;;;4998108;28;20013;-73
2023/01/20 02:07:44;;;;;;;;;;;;;;;;;;4998355;28;19946;-75
2023/01/20 02:10:10;;;;;;;;;;;;;;;;;;4998048;28;20406;-73
2023/01/20 02:12:36;;;;;;;;;;;;;;;;;;4998456;28;19949;-73
2023/01/20 02:15:02;;;;;;;;;;;;;;;;;;4997928;28;20422;-74
2023/01/20 02:17:28;;;;;;;;;;;;;;;;;;4998186;28;19947;-74
2023/01/20 02:19:54;;;;;;;;;;;;;;;;;;4997864;28;20298;-74
2023/01/20 02:22:20;;;;;;;;;;;;;;;;;;4997839;28;20038;-74
2023/01/20 02:24:46;;;;;;;;;;;;;;;;;;4998053;28;20387;-74
2023/01/20 02:27:12;;;;;;;;;;;;;;;;;;4997738;28;19953;-73
2023/01/20 02:29:38;;;;;;;;;;;;;;;;;;4997957;28;19974;-72
2023/01/20 02:32:04;;;;;;;;;;;;;;;;;;4997645;28;19941;-74
2023/01/20 02:34:30;;;;;;;;;;;;;;;;;;4997567;28;19993;-72
2023/01/20 02:36:56;;;;;;;;;;;;;;;;;;4998129;28;20314;-74
2023/01/20 02:39:21;;;;;;;;;;;;;;;;;;4997528;28;20295;-73
2023/01/20 02:41:47;;;;;;;;;;;;;;;;;;4997792;28;19947;-74
2023/01/20 02:44:13;;;;;;;;;;;;;;;;;;4997673;28;20433;-74
2023/01/20 02:46:39;;;;;;;;;;;;;;;;;;4997610;28;19982;-73
2023/01/20 02:49:05;;;;;;;;;;;;;;;;;;4995824;28;19984;-72
2023/01/20 02:51:31;;;;;;;;;;;;;;;;;;4997899;28;19939;-73
2023/01/20 02:53:57;;;;;;;;;;;;;;;;;;4995919;28;20069;-73
2023/01/20 02:56:23;;;;;;;;;;;;;;;;;;4995951;28;19990;-73
2023/01/20 02:58:49;;;;;;;;;;;;;;;;;;4997437;28;20313;-74
2023/01/20 03:01:15;;;;;;;;;;;;;;;;;;4997112;28;19956;-72
2023/01/20 03:03:41;;;;;;;;;;;;;;;;;;4997010;28;19985;-72
2023/01/20 03:06:07;;;;;;;;;;;;;;;;;;4997086;28;19969;-74
2023/01/20 03:08:33;;;;;;;;;;;;;;;;;;4997340;28;19952;-72
2023/01/20 03:10:59;;;;;;;;;;;;;;;;;;4997012;28;19976;-73
2023/01/20 03:13:26;;;;;;;;;;;;;;;;;;4996867;28;19963;-74
2023/01/20 03:15:51;;;;;;;;;;;;;;;;;;4997260;28;19956;-74
2023/01/20 03:18:17;;;;;;;;;;;;;;;;;;4995554;28;20323;-73
2023/01/20 03:20:43;;;;;;;;;;;;;;;;;;4996782;28;19996;-73
2023/01/20 03:23:10;;;;;;;;;;;;;;;;;;4996729;28;19945;-74
2023/01/20 03:25:37;;;;;;;;;;;;;;;;;;4996950;28;19956;-73
2023/01/20 03:28:03;;;;;;;;;;;;;;;;;;4996620;28;19957;-74
2023/01/20 03:30:29;;;;;;;;;;;;;;;;;;4996886;28;19971;-74
2023/01/20 03:32:55;;;;;;;;;;;;;;;;;;4996486;28;20292;-74
2023/01/20 03:35:21;;;;;;;;;;;;;;;;;;4997093;28;19987;-73
2023/01/20 03:37:47;;;;;;;;;;;;;;;;;;4996470;28;19949;-72
2023/01/20 03:40:13;;;;;;;;;;;;;;;;;;4996938;28;20387;-73
2023/01/20 03:42:39;;;;;;;;;;;;;;;;;;4996335;28;19957;-72
2023/01/20 03:45:05;;;;;;;;;;;;;;;;;;4996624;28;19950;-74
2023/01/20 03:47:30;;;;;;;;;;;;;;;;;;4996217;28;20011;-72
2023/01/20 03:49:56;;;;;;;;;;;;;;;;;;4996301;28;20459;-74
2023/01/20 03:52:22;;;;;;;;;;;;;;;;;;4996457;28;19948;-72
2023/01/20 03:54:48;;;;;;;;;;;;;;;;;;4996068;28;20464;-72
2023/01/20 03:57:14;;;;;;;;;;;;;;;;;;4996389;28;19938;-73
2023/01/20 03:59:40;;;;;;;;;;;;;;;;;;4996037;28;20353;-73
2023/01/20 04:02:06;;;;;;;;;;;;;;;;;;4996296;28;19937;-73
2023/01/20 04:04:32;;;;;;;;;;;;;;;;;;4995975;28;20481;-72
2023/01/20 04:06:57;;;;;;;;;;;;;;;;;;4995900;28;19949;-73
2023/01/20 04:09:23;;;;;;;;;;;;;;;;;;4995842;28;19948;-71
2023/01/20 04:11:49;;;;;;;;;;;;;;;;;;4995827;28;19943;-72
2023/01/20 04:14:15;;;;;;;;;;;;;;;;;;4995956;28;20031;-72
2023/01/20 04:16:41;;;;;;;;;;;;;;;;;;4995435;28;19979;-74
2023/01/20 04:19:07;;;;;;;;;;;;;;;;;;4995657;28;19938;-73
2023/01/20 04:21:33;;;;;;;;;;;;;;;;;;4995621;28;19990;-73
2023/01/20 04:23:59;;;;;;;;;;;;;;;;;;4995580;28;19949;-72
2023/01/20 04:26:24;;;;;;;;;;;;;;;;;;4996073;28;20385;-73
2023/01/20 04:28:50;;;;;;;;;;;;;;;;;;4995733;28;19984;-73
2023/01/20 04:31:16;;;;;;;;;;;;;;;;;;4995784;28;20406;-74
2023/01/20 04:33:42;;;;;;;;;;;;;;;;;;4995314;28;20017;-74
2023/01/20 04:36:08;;;;;;;;;;;;;;;;;;4995325;28;19942;-73
2023/01/20 04:38:34;;;;;;;;;;;;;;;;;;4995330;28;19948;-74
2023/01/20 04:41:00;;;;;;;;;;;;;;;;;;4995569;28;19974;-72
2023/01/20 04:43:26;;;;;;;;;;;;;;;;;;4995171;28;19948;-73
2023/01/20 04:45:52;;;;;;;;;;;;;;;;;;4995408;28;19960;-73
2023/01/20 04:48:18;;;;;;;;;;;;;;;;;;4995107;28;19957;-73
2023/01/20 04:50:43;;;;;;;;;;;;;;;;;;4994705;28;20034;-73
2023/01/20 04:53:09;;;;;;;;;;;;;;;;;;4995556;28;19971;-72
2023/01/20 04:55:36;;;;;;;;;;;;;;;;;;4995034;28;19951;-73
2023/01/20 04:58:01;;;;;;;;;;;;;;;;;;4995258;28;19937;-73
2023/01/20 05:00:27;;;;;;;;;;;;;;;;;;4994990;28;20318;-73
2023/01/20 05:02:53;;;;;;;;;;;;;;;;;;4995161;28;19945;-73
2023/01/20 05:05:19;;;;;;;;;;;;;;;;;;4994865;28;19956;-73
2023/01/20 05:07:45;;;;;;;;;;;;;;;;;;4993558;28;19942;-75
2023/01/20 05:10:11;;;;;;;;;;;;;;;;;;4995054;28;19971;-73
2023/01/20 05:12:37;;;;;;;;;;;;;;;;;;4994713;28;20409;-74
2023/01/20 05:15:03;;;;;;;;;;;;;;;;;;4995193;28;19968;-72
2023/01/20 05:17:29;;;;;;;;;;;;;;;;;;4994666;28;20434;-73
2023/01/20 05:19:55;;;;;;;;;;;;;;;;;;4994934;28;20041;-72
2023/01/20 05:22:20;;;;;;;;;;;;;;;;;;4994607;28;19953;-72
2023/01/20 05:24:46;;;;;;;;;;;;;;;;;;4994869;28;19948;-74
2023/01/20 05:27:12;;;;;;;;;;;;;;;;;;4993726;28;20326;-73
2023/01/20 05:29:38;;;;;;;;;;;;;;;;;;4994527;28;19945;-72
2023/01/20 05:32:04;;;;;;;;;;;;;;;;;;4994442;28;19956;-73
2023/01/20 05:34:30;;;;;;;;;;;;;;;;;;4994379;28;20094;-74
2023/01/20 05:36:56;;;;;;;;;;;;;;;;;;4994647;28;19946;-74
2023/01/20 05:39:22;;;;;;;;;;;;;;;;;;4994659;28;19949;-73
2023/01/20 05:41:48;;;;;;;;;;;;;;;;;;4994329;28;19952;-73
2023/01/20 05:44:14;;;;;;;;;;;;;;;;;;4994410;28;19938;-73
2023/01/20 05:46:39;;;;;;;;;;;;;;;;;;4994257;28;20315;-72
2023/01/20 05:49:05;;;;;;;;;;;;;;;;;;4994104;28;19977;-73
2023/01/20 05:51:31;;;;;;;;;;;;;;;;;;4994584;28;20016;-72
2023/01/20 05:53:57;;;;;;;;;;;;;;;;;;4994168;28;20005;-72
2023/01/20 05:56:23;;;;;;;;;;;;;;;;;;4994216;28;19943;-73
2023/01/20 05:58:49;;;;;;;;;;;;;;;;;;4994225;28;19957;-73
2023/01/20 06:01:15;;;;;;;;;;;;;;;;;;4994443;28;20003;-73
2023/01/20 06:03:41;;;;;;;;;;;;;;;;;;4994142;28;19949;-72
2023/01/20 06:06:07;;;;;;;;;;;;;;;;;;4994435;28;19949;-73
2023/01/20 06:08:33;;;;;;;;;;;;;;;;;;4992858;28;19953;-74
2023/01/20 06:10:59;;;;;;;;;;;;;;;;;;4994068;28;19949;-71
2023/01/20 06:13:25;;;;;;;;;;;;;;;;;;4994555;28;19975;-73
2023/01/20 06:15:51;;;;;;;;;;;;;;;;;;4994045;28;20026;-73
2023/01/20 06:18:17;;;;;;;;;;;;;;;;;;4994557;28;19950;-73
2023/01/20 06:20:43;;;;;;;;;;;;;;;;;;4994017;28;20002;-74
2023/01/20 06:23:10;;;;;;;;;;;;;;;;;;4994231;28;19943;-73
2023/01/20 06:25:35;;;;;;;;;;;;;;;;;;4992451;28;20000;-73
2023/01/20 06:28:01;;;;;;;;;;;;;;;;;;4993986;28;19949;-73
2023/01/20 06:30:27;;;;;;;;;;;;;;;;;;4993933;28;20449;-75
2023/01/20 06:32:53;;;;;;;;;;;;;;;;;;4992529;28;19945;-73
2023/01/20 06:35:19;;;;;;;;;;;;;;;;;;4994452;28;19948;-73
2023/01/20 06:37:45;;;;;;;;;;;;;;;;;;4993883;28;19944;-73
2023/01/20 06:40:11;;;;;;;;;;;;;;;;;;4997401;28;19992;-73
2023/01/20 06:42:37;;;;;;;;;;;;;;;;;;4997496;28;19949;-73
2023/01/20 06:45:03;;;;;;;;;;;;;;;;;;4997741;28;19981;-72
2023/01/20 06:47:28;;;;;;;;;;;;;;;;;;4997341;28;20024;-74
2023/01/20 06:49:54;;;;;;;;;;;;;;;;;;4997132;28;19977;-72
2023/01/20 06:52:20;;;;;;;;;;;;;;;;;;4997597;28;19941;-72
2023/01/20 06:54:46;;;;;;;;;;;;;;;;;;4997170;28;19974;-74
2023/01/20 06:57:12;;;;;;;;;;;;;;;;;;4997502;28;19958;-74
2023/01/20 06:59:38;;;;;;;;;;;;;;;;;;4997503;28;20040;-73
2023/01/20 07:02:04;;;;;;;;;;;;;;;;;;4997374;28;19988;-73
2023/01/20 07:04:30;;;;;;;;;;;;;;;;;;4997111;28;19992;-73
2023/01/20 07:06:56;;;;;;;;;;;;;;;;;;4997602;28;19940;-74
2023/01/20 07:09:21;;;;;;;;;;;;;;;;;;4997020;28;19948;-73
2023/01/20 07:11:47;;;;;;;;;;;;;;;;;;4997525;28;19938;-73
2023/01/20 07:14:13;;;;;;;;;;;;;;;;;;4997098;28;19975;-72
2023/01/20 07:16:39;;;;;;;;;;;;;;;;;;4997435;28;19948;-72
2023/01/20 07:19:05;;;;;;;;;;;;;;;;;;4997088;28;19937;-73
2023/01/20 07:21:31;;;;;;;;;;;;;;;;;;4996822;28;20080;-74
2023/01/20 07:23:57;;;;;;;;;;;;;;;;;;4995486;28;19953;-73
2023/01/20 07:26:25;;;;;;;;;;;;;;;;;;4996701;28;20552;-73
2023/01/20 07:28:51;;;;;;;;;;;;;;;;;;4996574;28;19954;-73
2023/01/20 07:31:17;;;;;;;;;;;;;;;;;;4996859;28;19950;-73
2023/01/20 07:33:43;;;;;;;;;;;;;;;;;;4996494;28;19963;-74
2023/01/20 07:36:08;;;;;;;;;;;;;;;;;;4996766;28;19942;-73
2023/01/20 07:38:34;;;;;;;;;;;;;;;;;;4996492;28;20415;-74
2023/01/20 07:41:00;;;;;;;;;;;;;;;;;;4996686;28;19951;-73
2023/01/20 07:43:26;;;;;;;;;;;;;;;;;;4996402;28;20402;-71
2023/01/20 07:45:52;;;;;;;;;;;;;;;;;;4996353;28;19951;-73
2023/01/20 07:48:18;;;;;;;;;;;;;;;;;;4996500;28;20330;-72
2023/01/20 07:50:44;;;;;;;;;;;;;;;;;;4994943;28;20082;-74
2023/01/20 07:53:10;;;;;;;;;;;;;;;;;;4996432;28;20127;-73
2023/01/20 07:55:35;;;;;;;;;;;;;;;;;;4996420;28;19949;-73
2023/01/20 07:58:01;;;;;;;;;;;;;;;;;;4996156;28;19946;-74
2023/01/20 08:00:27;;;;;;;;;;;;;;;;;;4996585;28;19953;-74
2023/01/20 08:02:53;;;;;;;;;;;;;;;;;;4996341;28;19948;-74
2023/01/20 08:05:19;;;;;;;;;;;;;;;;;;4996246;28;20478;-73
2023/01/20 08:07:45;;;;;;;;;;;;;;;;;;4995912;28;19948;-74
2023/01/20 08:10:11;;;;;;;;;;;;;;;;;;4995895;28;19944;-72
2023/01/20 08:12:38;;;;;;;;;;;;;;;;;;4996095;28;19940;-72
2023/01/20 08:15:04;;;;;;;;;;;;;;;;;;4996062;28;20012;-73
2023/01/20 08:17:30;;;;;;;;;;;;;;;;;;4996313;28;19940;-72
2023/01/20 08:19:56;;;;;;;;;;;;;;;;;;4995713;28;20003;-72
2023/01/20 08:22:24;;;;;;;;;;;;;;;;;;4995658;28;19943;-73
2023/01/20 08:24:50;;;;;;;;;;;;;;;;;;4995632;28;19952;-73
2023/01/20 08:27:16;;;;;;;;;;;;;;;;;;4995534;28;19947;-73
2023/01/20 08:29:41;;;;;;;;;;;;;;;;;;4994237;28;19953;-73
2023/01/20 08:32:07;;;;;;;;;;;;;;;;;;4994229;28;19944;-72
2023/01/20 08:34:33;;;;;;;;;;;;;;;;;;4995914;28;20022;-73
2023/01/20 08:36:59;;;;;;;;;;;;;;;;;;4995391;28;19956;-73
2023/01/20 08:39:25;;;;;;;;;;;;;;;;;;4995367;28;19987;-73
2023/01/20 08:41:51;;;;;;;;;;;;;;;;;;4995584;28;19997;-74
2023/01/20 08:44:17;;;;;;;;;;;;;;;;;;4995516;28;19949;-74
2023/01/20 08:46:43;;;;;;;;;;;;;;;;;;4995600;28;19941;-73
2023/01/20 08:49:08;;;;;;;;;;;;;;;;;;4994999;28;20513;-73
2023/01/20 08:51:34;;;;;;;;;;;;;;;;;;4995444;28;19951;-74
2023/01/20 08:54:00;;;;;;;;;;;;;;;;;;4995312;28;20429;-69
2023/01/20 08:56:26;;;;;;;;;;;;;;;;;;4995031;28;19995;-71
2023/01/20 08:58:52;;;;;;;;;;;;;;;;;;4995242;28;19948;-71
2023/01/20 09:01:18;;;;;;;;;;;;;;;;;;4994807;28;19950;-71
2023/01/20 09:03:44;;;;;;;;;;;;;;;;;;4994942;28;20295;-71
2023/01/20 09:06:10;;;;;;;;;;;;;;;;;;4994875;28;19954;-71
2023/01/20 09:08:36;;;;;;;;;;;;;;;;;;4994856;28;19974;-69
2023/01/20 09:11:02;;;;;;;;;;;;;;;;;;4995390;28;19988;-76
2023/01/20 09:13:28;;;;;;;;;;;;;;;;;;4994679;28;20053;-73
2023/01/20 09:15:54;;;;;;;;;;;;;;;;;;4994746;28;19982;-74
2023/01/20 09:18:20;;;;;;;;;;;;;;;;;;4994917;28;19937;-74
2023/01/20 09:20:46;;;;;;;;;;;;;;;;;;4994658;28;19986;-73
2023/01/20 09:23:11;;;;;;;;;;;;;;;;;;4993325;28;19949;-74
2023/01/20 09:25:37;;;;;;;;;;;;;;;;;;4995133;28;19955;-75
2023/01/20 09:28:03;;;;;;;;;;;;;;;;;;4994521;28;19943;-75
2023/01/20 09:30:29;;;;;;;;;;;;;;;;;;4995063;28;20426;-74
2023/01/20 09:32:58;;;;;;;;;;;;;;;;;;4994388;28;19950;-74
2023/01/20 09:35:24;;;;;;;;;;;;;;;;;;4994967;28;19991;-75
2023/01/20 09:46:04;;;;;;;;;;;;;;;;;;4994390;28;20435;-73
2023/01/20 09:53:59;;;;;;;;;;;;;;;;;;4974525;28;20029;-72
2023/01/20 09:56:25;;;;;;;;;;;;;;;;;;4974812;28;19983;-74
2023/01/20 09:58:51;;;;;;;;;;;;;;;;;;4975356;28;19946;-74
2023/01/20 10:01:19;;;;;;;;;;;;;;;;;;4974782;28;20323;-72
2023/01/20 10:03:46;;;;;;;;;;;;;;;;;;4957442;28;19951;-70
2023/01/20 10:06:11;;;;;;;;;;;;;;;;;;4975019;28;20388;-71
2023/01/20 10:08:37;;;;;;;;;;;;;;;;;;4974972;28;19949;-71
2023/01/20 10:11:03;;;;;;;;;;;;;;;;;;4957349;28;19956;-71
2023/01/20 10:13:29;;;;;;;;;;;;;;;;;;4975319;28;19970;-71
2023/01/20 10:15:55;;;;;;;;;;;;;;;;;;4978521;28;19955;-72
2023/01/20 10:18:21;;;;;;;;;;;;;;;;;;4978753;28;20016;-73
2023/01/20 10:20:47;;;;;;;;;;;;;;;;;;4978427;28;20447;-70
2023/01/20 10:23:13;;;;;;;;;;;;;;;;;;4978426;28;19957;-71
2023/01/20 10:25:39;;;;;;;;;;;;;;;;;;4978917;28;19950;-71
2023/01/20 10:28:04;;;;;;;;;;;;;;;;;;4978299;28;19998;-72
2023/01/20 10:30:31;;;;;;;;;;;;;;;;;;4978305;28;19948;-71
2023/01/20 10:32:56;;;;;;;;;;;;;;;;;;4978723;28;19946;-70
2023/01/20 10:35:22;;;;;;;;;;;;;;;;;;4978486;28;19978;-70
2023/01/20 10:37:48;;;;;;;;;;;;;;;;;;4978440;28;19959;-71
2023/01/20 10:40:14;;;;;;;;;;;;;;;;;;4978099;28;19974;-71
2023/01/20 10:42:40;;;;;;;;;;;;;;;;;;4978613;28;19958;-71
2023/01/20 10:45:06;;;;;;;;;;;;;;;;;;4978054;28;19949;-71
2023/01/20 10:47:32;;;;;;;;;;;;;;;;;;4978178;28;19956;-71
2023/01/20 10:49:58;;;;;;;;;;;;;;;;;;4988199;28;20025;-70
2023/01/20 10:52:23;;;;;;;;;;;;;;;;;;4997564;28;19946;-70
2023/01/20 10:54:49;;;;;;;;;;;;;;;;;;4997501;28;19969;-71
2023/01/20 10:57:15;;;;;;;;;;;;;;;;;;4997313;28;19952;-70
2023/01/20 10:59:41;;;;;;;;;;;;;;;;;;4997201;28;20001;-72
2023/01/20 11:02:07;;;;;;;;;;;;;;;;;;4997172;28;20341;-71
2023/01/20 11:04:34;;;;;;;;;;;;;;;;;;4997153;28;19957;-72
2023/01/20 11:07:02;;;;;;;;;;;;;;;;;;4997111;28;20290;-71
2023/01/20 11:09:28;;;;;;;;;;;;;;;;;;4997561;28;19940;-70
2023/01/20 11:11:54;;;;;;;;;;;;;;;;;;4996976;28;20388;-71
2023/01/20 11:14:20;;;;;;;;;;;;;;;;;;4996862;28;19969;-72
2023/01/20 11:16:47;;;;;;;;;;;;;;;;;;4997177;28;19945;-71
2023/01/20 11:19:12;;;;;;;;;;;;;;;;;;4996845;28;19964;-71
2023/01/20 11:21:40;;;;;;;;;;;;;;;;;;4997386;28;19942;-71
2023/01/20 11:24:06;;;;;;;;;;;;;;;;;;4996739;28;19978;-72
2023/01/20 11:26:32;;;;;;;;;;;;;;;;;;4995383;28;19996;-71
2023/01/20 11:28:58;;;;;;;;;;;;;;;;;;4996939;28;19981;-72
2023/01/20 11:31:23;;;;;;;;;;;;;;;;;;4996648;28;19949;-72
2023/01/20 11:33:49;;;;;;;;;;;;;;;;;;4996832;28;19992;-71
2023/01/20 11:36:15;;;;;;;;;;;;;;;;;;4996880;28;19951;-71
2023/01/20 11:38:41;;;;;;;;;;;;;;;;;;4997101;28;19985;-72
2023/01/20 11:41:07;;;;;;;;;;;;;;;;;;4996475;28;20514;-72
2023/01/20 11:43:33;;;;;;;;;;;;;;;;;;4996413;28;19953;-72
2023/01/20 11:45:59;;;;;;;;;;;;;;;;;;4996647;28;19948;-71
2023/01/20 11:48:25;;;;;;;;;;;;;;;;;;4994979;28;20489;-72
2023/01/20 11:50:51;;;;;;;;;;;;;;;;;;4995899;28;19985;-71
2023/01/20 11:53:17;;;;;;;;;;;;;;;;;;4996180;28;19974;-71
2023/01/20 11:55:43;;;;;;;;;;;;;;;;;;4996206;28;19959;-71
2023/01/20 11:58:09;;;;;;;;;;;;;;;;;;4996379;28;19949;-72
2023/01/20 12:00:35;;;;;;;;;;;;;;;;;;4996070;28;19983;-71
2023/01/20 12:03:01;;;;;;;;;;;;;;;;;;4996320;28;20014;-72
2023/01/20 12:05:27;;;;;;;;;;;;;;;;;;4996233;28;19950;-71
2023/01/20 12:07:53;;;;;;;;;;;;;;;;;;4995980;28;19963;-71
2023/01/20 12:10:19;;;;;;;;;;;;;;;;;;4996445;28;19954;-71
2023/01/20 12:12:45;;;;;;;;;;;;;;;;;;4995866;28;20057;-71
2023/01/20 12:15:11;;;;;;;;;;;;;;;;;;4996279;28;19971;-71
2023/01/20 12:17:37;;;;;;;;;;;;;;;;;;4995793;28;19980;-71
2023/01/20 12:20:04;;;;;;;;;;;;;;;;;;4996245;28;19955;-72
2023/01/20 12:22:29;;;;;;;;;;;;;;;;;;4995987;28;20382;-71
2023/01/20 12:25:08;;;;;;;;;;;;;;;;;;4995931;28;19958;-72
2023/01/20 12:27:33;;;;;;;;;;;;;;;;;;4995879;28;19949;-70
2023/01/20 12:30:00;;;;;;;;;;;;;;;;;;4994297;28;19954;-70
2023/01/20 12:32:28;;;;;;;;;;;;;;;;;;4995507;28;19952;-72
2023/01/20 12:34:53;;;;;;;;;;;;;;;;;;4995639;28;19963;-71
2023/01/20 12:37:19;;;;;;;;;;;;;;;;;;4994935;28;19950;-70
2023/01/20 12:39:45;;;;;;;;;;;;;;;;;;4995640;28;19952;-72
2023/01/20 12:42:11;;;;;;;;;;;;;;;;;;4995311;28;19952;-71
2023/01/20 12:44:37;;;;;;;;;;;;;;;;;;4995789;28;20442;-71
2023/01/20 12:47:03;;;;;;;;;;;;;;;;;;4995128;28;19977;-71
2023/01/20 12:49:29;;;;;;;;;;;;;;;;;;4995317;28;20465;-71
2023/01/20 12:51:55;;;;;;;;;;;;;;;;;;4995716;28;19948;-72
2023/01/20 12:54:20;;;;;;;;;;;;;;;;;;4995349;28;19974;-70
2023/01/20 12:56:46;;;;;;;;;;;;;;;;;;4995041;28;19952;-72
2023/01/20 12:59:12;;;;;;;;;;;;;;;;;;4995027;28;20037;-71
2023/01/20 13:01:39;;;;;;;;;;;;;;;;;;4995497;28;20410;-71
2023/01/20 13:04:05;;;;;;;;;;;;;;;;;;4995200;28;19944;-71
2023/01/20 13:06:31;;;;;;;;;;;;;;;;;;4995462;28;20037;-71
2023/01/20 13:08:57;;;;;;;;;;;;;;;;;;4994845;28;19972;-71
2023/01/20 13:11:23;;;;;;;;;;;;;;;;;;4994830;28;19954;-71
2023/01/20 13:13:49;;;;;;;;;;;;;;;;;;4995263;28;20442;-70
2023/01/20 13:16:15;;;;;;;;;;;;;;;;;;4995007;28;19953;-70
2023/01/20 13:18:41;;;;;;;;;;;;;;;;;;4995306;28;19944;-70
2023/01/20 13:21:09;;;;;;;;;;;;;;;;;;4994671;28;19945;-71
2023/01/20 13:23:35;;;;;;;;;;;;;;;;;;4994865;28;19951;-70
2023/01/20 13:26:01;;;;;;;;;;;;;;;;;;4994583;28;19971;-72
2023/01/20 13:28:27;;;;;;;;;;;;;;;;;;4994557;28;20296;-71
2023/01/20 13:30:53;;;;;;;;;;;;;;;;;;4994519;28;20432;-71
2023/01/20 13:33:19;;;;;;;;;;;;;;;;;;4994441;28;19944;-72
2023/01/20 13:35:45;;;;;;;;;;;;;;;;;;4994751;28;19950;-72
2023/01/20 13:38:11;;;;;;;;;;;;;;;;;;4994709;28;19953;-71
2023/01/20 13:40:36;;;;;;;;;;;;;;;;;;4994445;28;20014;-71
2023/01/20 13:43:02;;;;;;;;;;;;;;;;;;4994384;28;19949;-71
2023/01/20 13:45:28;;;;;;;;;;;;;;;;;;4994632;28;19950;-71
2023/01/20 13:47:56;;;;;;;;;;;;;;;;;;4993854;28;20571;-70
2023/01/20 13:50:22;;;;;;;;;;;;;;;;;;4993897;28;20023;-71
2023/01/20 13:52:48;;;;;;;;;;;;;;;;;;4994284;28;19950;-72
2023/01/20 13:55:14;;;;;;;;;;;;;;;;;;4994453;28;19974;-71
2023/01/20 13:57:40;;;;;;;;;;;;;;;;;;4994484;28;20423;-71
2023/01/20 14:00:06;;;;;;;;;;;;;;;;;;4994626;28;19946;-71
2023/01/20 14:02:32;;;;;;;;;;;;;;;;;;4994475;28;20313;-71
2023/01/20 14:04:57;;;;;;;;;;;;;;;;;;4994819;28;19991;-71
2023/01/20 14:07:23;;;;;;;;;;;;;;;;;;4994267;28;19944;-71
2023/01/20 14:09:49;;;;;;;;;;;;;;;;;;4994267;28;19959;-72
2023/01/20 14:12:15;;;;;;;;;;;;;;;;;;4994189;28;20025;-72
2023/01/20 14:14:42;;;;;;;;;;;;;;;;;;4993989;28;20099;-70
2023/01/20 14:17:08;;;;;;;;;;;;;;;;;;4992991;28;19997;-71
2023/01/20 14:19:34;;;;;;;;;;;;;;;;;;4993170;28;19954;-72
2023/01/20 14:22:03;;;;;;;;;;;;;;;;;;4994408;28;20275;-72
2023/01/20 14:24:29;;;;;;;;;;;;;;;;;;4993374;28;19974;-71
2023/01/20 14:26:55;;;;;;;;;;;;;;;;;;4994040;28;20399;-71
2023/01/20 14:29:21;;;;;;;;;;;;;;;;;;4994079;28;19952;-72
2023/01/20 14:31:47;;;;;;;;;;;;;;;;;;4993985;28;19945;-71
2023/01/20 14:34:12;;;;;;;;;;;;;;;;;;4994128;28;19978;-71
2023/01/20 14:36:38;;;;;;;;;;;;;;;;;;4993920;28;20423;-72
2023/01/20 14:39:08;;;;;;;;;;;;;;;;;;4993876;28;19949;-71
2023/01/20 14:41:34;;;;;;;;;;;;;;;;;;4992570;28;20339;-71
2023/01/20 14:44:00;;;;;;;;;;;;;;;;;;4994420;28;19993;-71
2023/01/20 14:46:26;;;;;;;;;;;;;;;;;;4993748;28;19952;-71
2023/01/20 14:48:52;;;;;;;;;;;;;;;;;;4993593;28;20326;-71
2023/01/20 14:51:17;;;;;;;;;;;;;;;;;;4993358;28;20329;-71
2023/01/20 14:53:44;;;;;;;;;;;;;;;;;;4993958;28;19987;-70
2023/01/20 14:56:10;;;;;;;;;;;;;;;;;;4993703;28;19950;-71
2023/01/20 14:58:36;;;;;;;;;;;;;;;;;;4993991;28;20087;-71
2023/01/20 15:01:02;;;;;;;;;;;;;;;;;;4996327;28;20335;-71
2023/01/20 15:03:27;;;;;;;;;;;;;;;;;;4997114;28;19954;-71
2023/01/20 15:05:53;;;;;;;;;;;;;;;;;;4997109;28;19955;-72
2023/01/20 15:08:20;;;;;;;;;;;;;;;;;;4997361;28;20314;-71
2023/01/20 15:10:46;;;;;;;;;;;;;;;;;;4997062;28;19951;-71
2023/01/20 15:13:12;;;;;;;;;;;;;;;;;;4997232;28;20041;-70
2023/01/20 15:15:38;;;;;;;;;;;;;;;;;;4995500;28;19995;-71
2023/01/20 15:18:04;;;;;;;;;;;;;;;;;;4996895;28;19952;-72
2023/01/20 15:20:33;;;;;;;;;;;;;;;;;;4997177;28;19974;-72
2023/01/20 15:22:59;;;;;;;;;;;;;;;;;;4997113;28;19952;-72
2023/01/20 15:25:25;;;;;;;;;;;;;;;;;;4996783;28;19943;-71
2023/01/20 15:27:50;;;;;;;;;;;;;;;;;;4997052;28;19955;-71
2023/01/20 15:30:18;;;;;;;;;;;;;;;;;;4996718;28;19966;-72
2023/01/20 15:32:44;;;;;;;;;;;;;;;;;;4996665;28;19997;-71
2023/01/20 15:35:09;;;;;;;;;;;;;;;;;;4996585;28;19973;-71
2023/01/20 15:37:35;;;;;;;;;;;;;;;;;;4996854;28;19941;-71
2023/01/20 15:40:01;;;;;;;;;;;;;;;;;;4996472;28;19952;-72
2023/01/20 15:42:27;;;;;;;;;;;;;;;;;;4996990;28;20080;-72
2023/01/20 15:44:53;;;;;;;;;;;;;;;;;;4996405;28;19956;-71
2023/01/20 15:47:19;;;;;;;;;;;;;;;;;;4996317;28;19968;-71
2023/01/20 15:49:45;;;;;;;;;;;;;;;;;;4996425;28;19989;-70
2023/01/20 15:52:11;;;;;;;;;;;;;;;;;;4996309;28;20431;-71
2023/01/20 15:54:37;;;;;;;;;;;;;;;;;;4996135;28;20455;-71
2023/01/20 15:57:03;;;;;;;;;;;;;;;;;;4996741;28;19955;-72
2023/01/20 15:59:30;;;;;;;;;;;;;;;;;;4996147;28;20002;-71
2023/01/20 16:01:56;;;;;;;;;;;;;;;;;;4996094;28;20028;-71
2023/01/20 16:04:22;;;;;;;;;;;;;;;;;;4996082;28;20021;-72
2023/01/20 16:06:47;;;;;;;;;;;;;;;;;;4996608;28;20410;-71
2023/01/20 16:09:13;;;;;;;;;;;;;;;;;;4996304;28;19949;-71
2023/01/20 16:11:41;;;;;;;;;;;;;;;;;;4995142;28;20416;-71
2023/01/20 16:14:07;;;;;;;;;;;;;;;;;;4995811;28;19969;-72
2023/01/20 16:16:32;;;;;;;;;;;;;;;;;;4995836;28;20115;-71
2023/01/20 16:18:58;;;;;;;;;;;;;;;;;;4996058;28;20353;-71
2023/01/20 16:21:24;;;;;;;;;;;;;;;;;;4995722;28;19997;-72
2023/01/20 16:23:50;;;;;;;;;;;;;;;;;;4996242;28;19951;-70
2023/01/20 16:26:16;;;;;;;;;;;;;;;;;;4995609;28;19957;-71
2023/01/20 16:28:42;;;;;;;;;;;;;;;;;;4995577;28;19952;-70
2023/01/20 16:31:08;;;;;;;;;;;;;;;;;;4996099;28;20396;-71
2023/01/20 16:33:34;;;;;;;;;;;;;;;;;;4995415;28;19971;-72
2023/01/20 16:35:59;;;;;;;;;;;;;;;;;;4995450;28;20413;-71
2023/01/20 16:38:25;;;;;;;;;;;;;;;;;;4995398;28;19997;-71
2023/01/20 16:40:51;;;;;;;;;;;;;;;;;;4995902;28;20305;-71
2023/01/20 16:43:18;;;;;;;;;;;;;;;;;;4995327;28;19995;-71
2023/01/20 16:45:44;;;;;;;;;;;;;;;;;;4993778;28;19974;-70
2023/01/20 16:48:11;;;;;;;;;;;;;;;;;;4995418;28;20046;-71
2023/01/20 16:50:37;;;;;;;;;;;;;;;;;;4994990;28;19974;-72